sensor_id;sensor_type;location;lat;lon;timestamp;temperature;humidity
33594;DHT22;19920;52.242;20.940;2023-04-24T00:00:41;13.40;99.90
33594;DHT22;19920;52.242;20.940;2023-04-24T00:03:07;13.40;99.90
33594;DHT22;19920;52.242;20.940;2023-04-24T00:05:33;13.40;99.90
33594;DHT22;19920;52.242;20.940;2023-04-24T00:07:59;13.40;99.90
33594;DHT22;19920;52.242;20.940;2023-04-24T00:10:25;13.40;99.90
33594;DHT22;19920;52.242;20.940;2023-04-24T00:12:51;13.30;99.90
33594;DHT22;19920;52.242;20.940;2023-04-24T00:15:16;13.20;99.90
33594;DHT22;19920;52.242;20.940;2023-04-24T00:17:42;13.20;99.90
33594;DHT22;19920;52.242;20.940;2023-04-24T00:20:08;13.20;99.90
33594;DHT22;19920;52.242;20.940;2023-04-24T00:22:35;13.20;99.90
33594;DHT22;19920;52.242;20.940;2023-04-24T00:25:01;13.20;99.90
33594;DHT22;19920;52.242;20.940;2023-04-24T00:27:26;13.10;99.90
33594;DHT22;19920;52.242;20.940;2023-04-24T00:29:52;13.10;99.90
33594;DHT22;19920;52.242;20.940;2023-04-24T00:32:18;13.10;99.90
33594;DHT22;19920;52.242;20.940;2023-04-24T00:34:44;13.10;99.90
33594;DHT22;19920;52.242;20.940;2023-04-24T00:37:09;13.00;99.90
33594;DHT22;19920;52.242;20.940;2023-04-24T00:39:37;13.10;99.90
33594;DHT22;19920;52.242;20.940;2023-04-24T00:42:02;13.10;99.90
33594;DHT22;19920;52.242;20.940;2023-04-24T00:44:28;13.00;99.90
33594;DHT22;19920;52.242;20.940;2023-04-24T00:46:54;13.00;99.90
33594;DHT22;19920;52.242;20.940;2023-04-24T00:49:21;12.90;99.90
33594;DHT22;19920;52.242;20.940;2023-04-24T00:51:47;13.00;99.90
33594;DHT22;19920;52.242;20.940;2023-04-24T00:54:13;13.00;99.90
33594;DHT22;19920;52.242;20.940;2023-04-24T00:56:40;13.00;99.90
33594;DHT22;19920;52.242;20.940;2023-04-24T00:59:06;12.90;99.90
33594;DHT22;19920;52.242;20.940;2023-04-24T01:01:32;12.90;99.90
33594;DHT22;19920;52.242;20.940;2023-04-24T01:03:58;13.00;99.90
33594;DHT22;19920;52.242;20.940;2023-04-24T01:06:28;13.00;99.90
33594;DHT22;19920;52.242;20.940;2023-04-24T01:08:54;12.90;99.90
33594;DHT22;19920;52.242;20.940;2023-04-24T01:11:21;12.90;99.90
33594;DHT22;19920;52.242;20.940;2023-04-24T01:13:47;12.90;99.90
33594;DHT22;19920;52.242;20.940;2023-04-24T01:16:14;12.80;99.90
33594;DHT22;19920;52.242;20.940;2023-04-24T01:18:40;12.80;99.90
33594;DHT22;19920;52.242;20.940;2023-04-24T01:21:08;12.70;99.90
33594;DHT22;19920;52.242;20.940;2023-04-24T01:23:34;12.70;99.90
33594;DHT22;19920;52.242;20.940;2023-04-24T01:26:00;12.70;99.90
33594;DHT22;19920;52.242;20.940;2023-04-24T01:28:26;12.70;99.90
33594;DHT22;19920;52.242;20.940;2023-04-24T01:30:52;12.70;99.90
33594;DHT22;19920;52.242;20.940;2023-04-24T01:33:21;12.70;99.90
33594;DHT22;19920;52.242;20.940;2023-04-24T01:35:47;12.70;99.90
33594;DHT22;19920;52.242;20.940;2023-04-24T01:38:12;12.70;99.90
33594;DHT22;19920;52.242;20.940;2023-04-24T01:40:38;12.80;99.90
33594;DHT22;19920;52.242;20.940;2023-04-24T01:43:04;12.80;99.90
33594;DHT22;19920;52.242;20.940;2023-04-24T01:45:29;12.70;99.90
33594;DHT22;19920;52.242;20.940;2023-04-24T01:47:55;12.80;99.90
33594;DHT22;19920;52.242;20.940;2023-04-24T01:50:21;12.70;99.90
33594;DHT22;19920;52.242;20.940;2023-04-24T01:52:47;12.70;99.90
33594;DHT22;19920;52.242;20.940;2023-04-24T01:55:12;12.70;99.90
33594;DHT22;19920;52.242;20.940;2023-04-24T01:57:38;12.70;99.90
33594;DHT22;19920;52.242;20.940;2023-04-24T02:00:05;12.70;99.90
33594;DHT22;19920;52.242;20.940;2023-04-24T02:02:32;12.70;99.90
33594;DHT22;19920;52.242;20.940;2023-04-24T02:04:58;12.60;99.90
33594;DHT22;19920;52.242;20.940;2023-04-24T02:07:23;12.60;99.90
33594;DHT22;19920;52.242;20.940;2023-04-24T02:09:49;12.60;99.90
33594;DHT22;19920;52.242;20.940;2023-04-24T02:12:15;12.70;99.90
33594;DHT22;19920;52.242;20.940;2023-04-24T02:14:43;12.70;99.90
33594;DHT22;19920;52.242;20.940;2023-04-24T02:17:09;12.80;99.90
33594;DHT22;19920;52.242;20.940;2023-04-24T02:19:35;12.80;99.90
33594;DHT22;19920;52.242;20.940;2023-04-24T02:22:00;12.80;99.90
33594;DHT22;19920;52.242;20.940;2023-04-24T02:24:26;12.70;99.90
33594;DHT22;19920;52.242;20.940;2023-04-24T02:26:52;12.70;99.90
33594;DHT22;19920;52.242;20.940;2023-04-24T02:29:17;12.70;99.90
33594;DHT22;19920;52.242;20.940;2023-04-24T02:31:43;12.60;99.90
33594;DHT22;19920;52.242;20.940;2023-04-24T02:34:09;12.60;99.90
33594;DHT22;19920;52.242;20.940;2023-04-24T02:36:34;12.50;99.90
33594;DHT22;19920;52.242;20.940;2023-04-24T02:39:00;12.40;99.90
33594;DHT22;19920;52.242;20.940;2023-04-24T02:41:26;12.40;99.90
33594;DHT22;19920;52.242;20.940;2023-04-24T02:44:00;12.30;99.90
33594;DHT22;19920;52.242;20.940;2023-04-24T02:46:25;12.30;99.90
33594;DHT22;19920;52.242;20.940;2023-04-24T02:48:51;12.20;99.90
33594;DHT22;19920;52.242;20.940;2023-04-24T02:51:17;12.10;99.90
33594;DHT22;19920;52.242;20.940;2023-04-24T02:53:42;12.20;99.90
33594;DHT22;19920;52.242;20.940;2023-04-24T02:56:08;12.10;99.90
33594;DHT22;19920;52.242;20.940;2023-04-24T02:58:34;12.10;99.90
33594;DHT22;19920;52.242;20.940;2023-04-24T03:01:00;12.10;99.90
33594;DHT22;19920;52.242;20.940;2023-04-24T03:03:26;12.10;99.90
33594;DHT22;19920;52.242;20.940;2023-04-24T03:05:52;12.10;99.90
33594;DHT22;19920;52.242;20.940;2023-04-24T03:08:17;12.10;99.90
33594;DHT22;19920;52.242;20.940;2023-04-24T03:10:43;12.10;99.90
33594;DHT22;19920;52.242;20.940;2023-04-24T03:13:09;12.10;99.90
33594;DHT22;19920;52.242;20.940;2023-04-24T03:15:35;12.10;99.90
33594;DHT22;19920;52.242;20.940;2023-04-24T03:18:00;12.10;99.90
33594;DHT22;19920;52.242;20.940;2023-04-24T03:20:26;12.10;99.90
33594;DHT22;19920;52.242;20.940;2023-04-24T03:22:52;12.10;99.90
33594;DHT22;19920;52.242;20.940;2023-04-24T03:25:18;12.10;99.90
33594;DHT22;19920;52.242;20.940;2023-04-24T03:27:43;12.10;99.90
33594;DHT22;19920;52.242;20.940;2023-04-24T03:30:09;12.10;99.90
33594;DHT22;19920;52.242;20.940;2023-04-24T03:32:35;12.20;99.90
33594;DHT22;19920;52.242;20.940;2023-04-24T03:35:01;12.20;99.90
33594;DHT22;19920;52.242;20.940;2023-04-24T03:37:27;12.30;99.90
33594;DHT22;19920;52.242;20.940;2023-04-24T03:39:52;12.30;99.90
33594;DHT22;19920;52.242;20.940;2023-04-24T03:42:18;12.40;99.90
33594;DHT22;19920;52.242;20.940;2023-04-24T03:44:44;12.50;99.90
33594;DHT22;19920;52.242;20.940;2023-04-24T03:47:09;12.60;99.90
33594;DHT22;19920;52.242;20.940;2023-04-24T03:49:35;12.70;99.90
33594;DHT22;19920;52.242;20.940;2023-04-24T03:52:01;12.80;99.90
33594;DHT22;19920;52.242;20.940;2023-04-24T03:54:26;12.80;99.90
33594;DHT22;19920;52.242;20.940;2023-04-24T03:56:52;12.90;99.90
33594;DHT22;19920;52.242;20.940;2023-04-24T03:59:18;12.90;99.90
33594;DHT22;19920;52.242;20.940;2023-04-24T04:01:45;12.90;99.90
33594;DHT22;19920;52.242;20.940;2023-04-24T04:04:11;13.00;99.90
33594;DHT22;19920;52.242;20.940;2023-04-24T04:06:36;13.00;99.90
33594;DHT22;19920;52.242;20.940;2023-04-24T04:09:02;13.10;99.90
33594;DHT22;19920;52.242;20.940;2023-04-24T04:11:28;13.10;99.90
33594;DHT22;19920;52.242;20.940;2023-04-24T04:13:54;13.10;99.90
33594;DHT22;19920;52.242;20.940;2023-04-24T04:16:20;13.20;99.90
33594;DHT22;19920;52.242;20.940;2023-04-24T04:18:46;13.10;99.90
33594;DHT22;19920;52.242;20.940;2023-04-24T04:21:12;13.20;99.90
33594;DHT22;19920;52.242;20.940;2023-04-24T04:23:38;13.20;99.90
33594;DHT22;19920;52.242;20.940;2023-04-24T04:26:04;13.10;99.90
33594;DHT22;19920;52.242;20.940;2023-04-24T04:28:30;13.10;99.90
33594;DHT22;19920;52.242;20.940;2023-04-24T04:30:57;13.10;99.90
33594;DHT22;19920;52.242;20.940;2023-04-24T04:33:23;13.00;99.90
33594;DHT22;19920;52.242;20.940;2023-04-24T04:35:49;13.00;99.90
33594;DHT22;19920;52.242;20.940;2023-04-24T04:38:15;13.00;99.90
33594;DHT22;19920;52.242;20.940;2023-04-24T04:40:42;13.00;99.90
33594;DHT22;19920;52.242;20.940;2023-04-24T04:43:08;13.10;99.90
33594;DHT22;19920;52.242;20.940;2023-04-24T04:45:33;13.10;99.90
33594;DHT22;19920;52.242;20.940;2023-04-24T04:48:00;13.20;99.90
33594;DHT22;19920;52.242;20.940;2023-04-24T04:50:27;13.30;99.90
33594;DHT22;19920;52.242;20.940;2023-04-24T04:52:53;13.40;99.90
33594;DHT22;19920;52.242;20.940;2023-04-24T04:55:18;13.50;99.90
33594;DHT22;19920;52.242;20.940;2023-04-24T04:57:47;13.70;99.90
33594;DHT22;19920;52.242;20.940;2023-04-24T05:00:13;13.90;99.90
33594;DHT22;19920;52.242;20.940;2023-04-24T05:02:39;14.00;99.90
33594;DHT22;19920;52.242;20.940;2023-04-24T05:05:06;14.30;99.90
33594;DHT22;19920;52.242;20.940;2023-04-24T05:07:31;14.40;99.90
33594;DHT22;19920;52.242;20.940;2023-04-24T05:09:57;14.60;99.90
33594;DHT22;19920;52.242;20.940;2023-04-24T05:12:23;14.70;99.90
33594;DHT22;19920;52.242;20.940;2023-04-24T05:14:49;14.90;99.90
33594;DHT22;19920;52.242;20.940;2023-04-24T05:17:15;14.90;99.90
33594;DHT22;19920;52.242;20.940;2023-04-24T05:19:41;15.10;99.90
33594;DHT22;19920;52.242;20.940;2023-04-24T05:22:06;15.20;99.90
33594;DHT22;19920;52.242;20.940;2023-04-24T05:24:36;15.40;99.90
33594;DHT22;19920;52.242;20.940;2023-04-24T05:27:05;15.40;99.90
33594;DHT22;19920;52.242;20.940;2023-04-24T05:29:31;15.60;99.90
33594;DHT22;19920;52.242;20.940;2023-04-24T05:31:58;15.70;99.90
33594;DHT22;19920;52.242;20.940;2023-04-24T05:34:24;15.90;99.90
33594;DHT22;19920;52.242;20.940;2023-04-24T05:36:50;16.00;99.90
33594;DHT22;19920;52.242;20.940;2023-04-24T05:39:16;16.20;99.90
33594;DHT22;19920;52.242;20.940;2023-04-24T05:41:42;16.20;99.90
33594;DHT22;19920;52.242;20.940;2023-04-24T05:44:08;16.30;99.90
33594;DHT22;19920;52.242;20.940;2023-04-24T05:46:34;16.30;99.90
33594;DHT22;19920;52.242;20.940;2023-04-24T05:49:00;16.30;99.90
33594;DHT22;19920;52.242;20.940;2023-04-24T05:51:26;16.30;99.90
33594;DHT22;19920;52.242;20.940;2023-04-24T05:53:51;16.20;99.90
33594;DHT22;19920;52.242;20.940;2023-04-24T05:56:18;16.20;99.90
33594;DHT22;19920;52.242;20.940;2023-04-24T05:58:44;16.20;99.90
33594;DHT22;19920;52.242;20.940;2023-04-24T06:01:10;16.20;99.90
33594;DHT22;19920;52.242;20.940;2023-04-24T06:03:36;16.10;99.90
33594;DHT22;19920;52.242;20.940;2023-04-24T06:06:01;16.10;99.90
33594;DHT22;19920;52.242;20.940;2023-04-24T06:08:27;16.10;99.90
33594;DHT22;19920;52.242;20.940;2023-04-24T06:10:52;16.20;99.90
33594;DHT22;19920;52.242;20.940;2023-04-24T06:13:18;16.30;99.90
33594;DHT22;19920;52.242;20.940;2023-04-24T06:15:44;16.40;99.90
33594;DHT22;19920;52.242;20.940;2023-04-24T06:18:09;16.50;99.90
33594;DHT22;19920;52.242;20.940;2023-04-24T06:20:38;16.60;99.90
33594;DHT22;19920;52.242;20.940;2023-04-24T06:23:04;16.80;99.90
33594;DHT22;19920;52.242;20.940;2023-04-24T06:25:30;17.00;99.90
33594;DHT22;19920;52.242;20.940;2023-04-24T06:27:56;17.20;99.90
33594;DHT22;19920;52.242;20.940;2023-04-24T06:30:22;17.40;99.90
33594;DHT22;19920;52.242;20.940;2023-04-24T06:32:48;17.70;99.90
33594;DHT22;19920;52.242;20.940;2023-04-24T06:35:13;17.90;99.90
33594;DHT22;19920;52.242;20.940;2023-04-24T06:37:41;18.10;99.90
33594;DHT22;19920;52.242;20.940;2023-04-24T06:40:07;18.20;99.90
33594;DHT22;19920;52.242;20.940;2023-04-24T06:42:33;18.20;99.90
33594;DHT22;19920;52.242;20.940;2023-04-24T06:45:00;18.10;99.90
33594;DHT22;19920;52.242;20.940;2023-04-24T06:47:26;18.20;99.90
33594;DHT22;19920;52.242;20.940;2023-04-24T06:49:52;18.30;99.90
33594;DHT22;19920;52.242;20.940;2023-04-24T06:52:19;18.30;99.90
33594;DHT22;19920;52.242;20.940;2023-04-24T06:54:44;18.40;99.90
33594;DHT22;19920;52.242;20.940;2023-04-24T06:57:10;18.50;99.90
33594;DHT22;19920;52.242;20.940;2023-04-24T06:59:36;18.50;99.90
33594;DHT22;19920;52.242;20.940;2023-04-24T07:02:02;18.60;99.90
33594;DHT22;19920;52.242;20.940;2023-04-24T07:04:28;18.60;99.90
33594;DHT22;19920;52.242;20.940;2023-04-24T07:06:54;18.70;99.90
33594;DHT22;19920;52.242;20.940;2023-04-24T07:09:22;18.70;99.90
33594;DHT22;19920;52.242;20.940;2023-04-24T07:11:49;18.70;99.90
33594;DHT22;19920;52.242;20.940;2023-04-24T07:14:15;18.80;99.90
33594;DHT22;19920;52.242;20.940;2023-04-24T07:16:41;18.90;99.90
33594;DHT22;19920;52.242;20.940;2023-04-24T07:19:07;18.90;99.90
33594;DHT22;19920;52.242;20.940;2023-04-24T07:21:32;19.00;99.90
33594;DHT22;19920;52.242;20.940;2023-04-24T07:23:59;19.00;99.90
33594;DHT22;19920;52.242;20.940;2023-04-24T07:26:26;18.90;99.90
33594;DHT22;19920;52.242;20.940;2023-04-24T07:28:53;19.00;99.90
33594;DHT22;19920;52.242;20.940;2023-04-24T07:31:18;19.00;99.90
33594;DHT22;19920;52.242;20.940;2023-04-24T07:33:44;19.10;99.90
33594;DHT22;19920;52.242;20.940;2023-04-24T07:36:11;19.30;99.90
33594;DHT22;19920;52.242;20.940;2023-04-24T07:38:41;19.50;99.90
33594;DHT22;19920;52.242;20.940;2023-04-24T07:41:07;19.80;99.90
33594;DHT22;19920;52.242;20.940;2023-04-24T07:43:33;19.90;99.90
33594;DHT22;19920;52.242;20.940;2023-04-24T07:45:59;20.00;99.90
33594;DHT22;19920;52.242;20.940;2023-04-24T07:48:25;20.20;99.90
33594;DHT22;19920;52.242;20.940;2023-04-24T07:50:52;20.40;99.90
33594;DHT22;19920;52.242;20.940;2023-04-24T07:53:17;20.50;99.90
33594;DHT22;19920;52.242;20.940;2023-04-24T07:55:43;20.60;99.90
33594;DHT22;19920;52.242;20.940;2023-04-24T07:58:09;20.70;99.90
33594;DHT22;19920;52.242;20.940;2023-04-24T08:00:34;20.80;99.90
33594;DHT22;19920;52.242;20.940;2023-04-24T08:03:03;20.80;99.90
33594;DHT22;19920;52.242;20.940;2023-04-24T08:05:29;21.00;99.90
33594;DHT22;19920;52.242;20.940;2023-04-24T08:07:55;20.90;99.90
33594;DHT22;19920;52.242;20.940;2023-04-24T08:10:24;20.70;99.90
33594;DHT22;19920;52.242;20.940;2023-04-24T08:12:50;20.50;99.90
33594;DHT22;19920;52.242;20.940;2023-04-24T08:15:16;20.30;99.90
33594;DHT22;19920;52.242;20.940;2023-04-24T08:17:42;20.10;99.90
33594;DHT22;19920;52.242;20.940;2023-04-24T08:20:10;19.80;99.90
33594;DHT22;19920;52.242;20.940;2023-04-24T08:22:42;19.70;99.90
33594;DHT22;19920;52.242;20.940;2023-04-24T08:25:09;19.60;99.90
33594;DHT22;19920;52.242;20.940;2023-04-24T08:27:35;19.70;99.90
33594;DHT22;19920;52.242;20.940;2023-04-24T08:30:02;19.70;99.90
33594;DHT22;19920;52.242;20.940;2023-04-24T08:32:28;19.50;99.90
33594;DHT22;19920;52.242;20.940;2023-04-24T08:34:55;19.40;99.90
33594;DHT22;19920;52.242;20.940;2023-04-24T08:37:22;19.30;99.90
33594;DHT22;19920;52.242;20.940;2023-04-24T08:39:48;19.40;99.90
33594;DHT22;19920;52.242;20.940;2023-04-24T08:42:16;19.30;99.90
33594;DHT22;19920;52.242;20.940;2023-04-24T08:44:42;19.30;99.90
33594;DHT22;19920;52.242;20.940;2023-04-24T08:47:08;19.40;99.90
33594;DHT22;19920;52.242;20.940;2023-04-24T08:49:35;19.60;99.90
33594;DHT22;19920;52.242;20.940;2023-04-24T08:52:02;19.80;99.90
33594;DHT22;19920;52.242;20.940;2023-04-24T08:54:28;19.90;99.90
33594;DHT22;19920;52.242;20.940;2023-04-24T08:56:58;20.10;99.90
33594;DHT22;19920;52.242;20.940;2023-04-24T08:59:26;20.10;99.90
33594;DHT22;19920;52.242;20.940;2023-04-24T09:01:53;20.20;99.90
33594;DHT22;19920;52.242;20.940;2023-04-24T09:04:20;20.30;99.90
33594;DHT22;19920;52.242;20.940;2023-04-24T09:06:48;20.40;99.90
33594;DHT22;19920;52.242;20.940;2023-04-24T09:09:16;20.50;99.90
33594;DHT22;19920;52.242;20.940;2023-04-24T09:11:42;20.60;99.90
33594;DHT22;19920;52.242;20.940;2023-04-24T09:14:09;20.70;99.90
33594;DHT22;19920;52.242;20.940;2023-04-24T09:16:35;20.90;99.90
33594;DHT22;19920;52.242;20.940;2023-04-24T09:19:01;21.10;99.90
33594;DHT22;19920;52.242;20.940;2023-04-24T09:21:34;21.30;99.90
33594;DHT22;19920;52.242;20.940;2023-04-24T09:24:03;21.50;99.90
33594;DHT22;19920;52.242;20.940;2023-04-24T09:26:34;21.70;99.90
33594;DHT22;19920;52.242;20.940;2023-04-24T09:29:00;21.80;99.90
33594;DHT22;19920;52.242;20.940;2023-04-24T09:31:28;22.00;99.90
33594;DHT22;19920;52.242;20.940;2023-04-24T09:33:59;22.10;99.90
33594;DHT22;19920;52.242;20.940;2023-04-24T09:36:43;22.00;99.90
33594;DHT22;19920;52.242;20.940;2023-04-24T09:39:11;22.00;99.90
33594;DHT22;19920;52.242;20.940;2023-04-24T09:44:16;21.80;99.90
33594;DHT22;19920;52.242;20.940;2023-04-24T09:46:44;21.80;99.90
33594;DHT22;19920;52.242;20.940;2023-04-24T09:49:13;21.90;99.90
33594;DHT22;19920;52.242;20.940;2023-04-24T09:51:39;22.20;99.90
33594;DHT22;19920;52.242;20.940;2023-04-24T09:54:20;22.30;99.90
33594;DHT22;19920;52.242;20.940;2023-04-24T09:56:48;22.40;99.90
33594;DHT22;19920;52.242;20.940;2023-04-24T09:59:16;22.20;99.90
33594;DHT22;19920;52.242;20.940;2023-04-24T10:01:42;22.10;99.90
33594;DHT22;19920;52.242;20.940;2023-04-24T10:04:26;22.10;99.90
33594;DHT22;19920;52.242;20.940;2023-04-24T10:06:54;22.20;99.90
33594;DHT22;19920;52.242;20.940;2023-04-24T10:09:22;22.20;99.90
33594;DHT22;19920;52.242;20.940;2023-04-24T10:11:50;22.30;99.90
33594;DHT22;19920;52.242;20.940;2023-04-24T10:14:18;22.30;99.90
33594;DHT22;19920;52.242;20.940;2023-04-24T10:16:44;22.40;99.90
33594;DHT22;19920;52.242;20.940;2023-04-24T10:19:16;22.40;99.90
33594;DHT22;19920;52.242;20.940;2023-04-24T10:21:44;22.50;99.90
33594;DHT22;19920;52.242;20.940;2023-04-24T10:24:15;22.40;99.90
33594;DHT22;19920;52.242;20.940;2023-04-24T10:26:41;22.40;99.90
33594;DHT22;19920;52.242;20.940;2023-04-24T10:29:08;22.50;99.90
33594;DHT22;19920;52.242;20.940;2023-04-24T10:31:36;22.60;99.90
33594;DHT22;19920;52.242;20.940;2023-04-24T10:34:07;22.80;99.90
33594;DHT22;19920;52.242;20.940;2023-04-24T10:36:35;22.90;99.90
33594;DHT22;19920;52.242;20.940;2023-04-24T10:39:03;23.00;99.90
33594;DHT22;19920;52.242;20.940;2023-04-24T10:41:32;23.20;99.90
33594;DHT22;19920;52.242;20.940;2023-04-24T10:44:14;23.30;99.90
33594;DHT22;19920;52.242;20.940;2023-04-24T10:46:46;23.30;99.90
33594;DHT22;19920;52.242;20.940;2023-04-24T10:49:15;23.50;99.90
33594;DHT22;19920;52.242;20.940;2023-04-24T10:54:35;23.30;99.90
33594;DHT22;19920;52.242;20.940;2023-04-24T11:00:09;23.80;99.90
33594;DHT22;19920;52.242;20.940;2023-04-24T11:02:39;23.90;99.90
33594;DHT22;19920;52.242;20.940;2023-04-24T11:05:06;24.00;99.90
33594;DHT22;19920;52.242;20.940;2023-04-24T11:10:47;24.30;99.90
33594;DHT22;19920;52.242;20.940;2023-04-24T11:13:22;24.20;99.90
33594;DHT22;19920;52.242;20.940;2023-04-24T11:18:52;24.20;99.90
33594;DHT22;19920;52.242;20.940;2023-04-24T11:21:25;24.00;99.90
33594;DHT22;19920;52.242;20.940;2023-04-24T11:23:51;24.30;99.90
33594;DHT22;19920;52.242;20.940;2023-04-24T11:26:22;24.50;99.90
33594;DHT22;19920;52.242;20.940;2023-04-24T11:28:50;24.60;99.90
33594;DHT22;19920;52.242;20.940;2023-04-24T11:31:37;24.50;99.90
33594;DHT22;19920;52.242;20.940;2023-04-24T11:34:11;24.50;99.90
33594;DHT22;19920;52.242;20.940;2023-04-24T11:36:38;24.20;99.90
33594;DHT22;19920;52.242;20.940;2023-04-24T11:39:04;23.90;99.90
33594;DHT22;19920;52.242;20.940;2023-04-24T11:41:31;23.80;99.90
33594;DHT22;19920;52.242;20.940;2023-04-24T11:43:57;23.70;99.90
33594;DHT22;19920;52.242;20.940;2023-04-24T11:46:23;23.40;99.90
33594;DHT22;19920;52.242;20.940;2023-04-24T11:48:49;23.30;99.90
33594;DHT22;19920;52.242;20.940;2023-04-24T11:51:15;23.60;99.90
33594;DHT22;19920;52.242;20.940;2023-04-24T11:53:40;23.90;99.90
33594;DHT22;19920;52.242;20.940;2023-04-24T11:56:08;24.10;99.90
33594;DHT22;19920;52.242;20.940;2023-04-24T11:58:44;24.30;99.90
33594;DHT22;19920;52.242;20.940;2023-04-24T12:01:10;24.70;99.90
33594;DHT22;19920;52.242;20.940;2023-04-24T12:03:36;25.00;99.90
33594;DHT22;19920;52.242;20.940;2023-04-24T12:06:06;25.20;99.90
33594;DHT22;19920;52.242;20.940;2023-04-24T12:08:33;25.40;99.90
33594;DHT22;19920;52.242;20.940;2023-04-24T12:11:00;25.70;99.70
33594;DHT22;19920;52.242;20.940;2023-04-24T12:13:26;25.90;99.10
33594;DHT22;19920;52.242;20.940;2023-04-24T12:15:52;26.00;98.70
33594;DHT22;19920;52.242;20.940;2023-04-24T12:18:18;26.20;97.00
33594;DHT22;19920;52.242;20.940;2023-04-24T12:20:43;26.40;98.70
33594;DHT22;19920;52.242;20.940;2023-04-24T12:23:09;26.70;98.10
33594;DHT22;19920;52.242;20.940;2023-04-24T12:25:35;26.60;97.60
33594;DHT22;19920;52.242;20.940;2023-04-24T12:30:31;26.70;97.30
33594;DHT22;19920;52.242;20.940;2023-04-24T12:32:58;26.80;96.00
33594;DHT22;19920;52.242;20.940;2023-04-24T12:35:25;26.90;96.70
33594;DHT22;19920;52.242;20.940;2023-04-24T12:37:51;26.80;96.10
33594;DHT22;19920;52.242;20.940;2023-04-24T12:40:20;27.10;96.90
33594;DHT22;19920;52.242;20.940;2023-04-24T12:42:50;27.60;95.20
33594;DHT22;19920;52.242;20.940;2023-04-24T12:45:17;27.60;93.10
33594;DHT22;19920;52.242;20.940;2023-04-24T12:47:44;27.30;91.40
33594;DHT22;19920;52.242;20.940;2023-04-24T12:50:13;26.70;92.10
33594;DHT22;19920;52.242;20.940;2023-04-24T12:52:39;25.70;94.20
33594;DHT22;19920;52.242;20.940;2023-04-24T12:55:06;24.50;95.50
33594;DHT22;19920;52.242;20.940;2023-04-24T12:57:36;23.60;96.00
33594;DHT22;19920;52.242;20.940;2023-04-24T13:00:03;22.90;97.30
33594;DHT22;19920;52.242;20.940;2023-04-24T13:02:31;22.60;97.90
33594;DHT22;19920;52.242;20.940;2023-04-24T13:04:57;22.20;98.70
33594;DHT22;19920;52.242;20.940;2023-04-24T13:07:23;21.80;99.30
33594;DHT22;19920;52.242;20.940;2023-04-24T13:09:50;21.50;99.90
33594;DHT22;19920;52.242;20.940;2023-04-24T13:12:17;21.40;99.90
33594;DHT22;19920;52.242;20.940;2023-04-24T13:14:43;21.10;99.90
33594;DHT22;19920;52.242;20.940;2023-04-24T13:17:08;20.90;99.90
33594;DHT22;19920;52.242;20.940;2023-04-24T13:19:38;20.70;99.90
33594;DHT22;19920;52.242;20.940;2023-04-24T13:22:04;20.70;99.90
33594;DHT22;19920;52.242;20.940;2023-04-24T13:24:31;21.10;99.90
33594;DHT22;19920;52.242;20.940;2023-04-24T13:26:57;21.70;99.90
33594;DHT22;19920;52.242;20.940;2023-04-24T13:29:23;22.40;99.80
33594;DHT22;19920;52.242;20.940;2023-04-24T13:31:52;22.50;99.30
33594;DHT22;19920;52.242;20.940;2023-04-24T13:34:25;22.50;98.40
33594;DHT22;19920;52.242;20.940;2023-04-24T13:36:54;22.70;98.90
33594;DHT22;19920;52.242;20.940;2023-04-24T13:39:21;22.70;98.30
33594;DHT22;19920;52.242;20.940;2023-04-24T13:41:47;23.00;98.20
33594;DHT22;19920;52.242;20.940;2023-04-24T13:44:14;23.60;96.80
33594;DHT22;19920;52.242;20.940;2023-04-24T13:46:41;23.90;96.30
33594;DHT22;19920;52.242;20.940;2023-04-24T13:49:06;24.50;95.20
33594;DHT22;19920;52.242;20.940;2023-04-24T13:51:32;25.40;95.60
33594;DHT22;19920;52.242;20.940;2023-04-24T13:53:58;25.60;93.20
33594;DHT22;19920;52.242;20.940;2023-04-24T13:56:24;25.80;93.10
33594;DHT22;19920;52.242;20.940;2023-04-24T13:58:49;25.30;93.20
33594;DHT22;19920;52.242;20.940;2023-04-24T14:01:15;24.80;93.20
33594;DHT22;19920;52.242;20.940;2023-04-24T14:03:42;24.80;93.10
33594;DHT22;19920;52.242;20.940;2023-04-24T14:06:10;25.00;93.00
33594;DHT22;19920;52.242;20.940;2023-04-24T14:08:36;25.20;92.40
33594;DHT22;19920;52.242;20.940;2023-04-24T14:11:02;25.60;93.40
33594;DHT22;19920;52.242;20.940;2023-04-24T14:13:28;25.90;91.70
33594;DHT22;19920;52.242;20.940;2023-04-24T14:15:54;26.20;91.60
33594;DHT22;19920;52.242;20.940;2023-04-24T14:18:20;26.30;92.20
33594;DHT22;19920;52.242;20.940;2023-04-24T14:20:45;25.80;92.40
33594;DHT22;19920;52.242;20.940;2023-04-24T14:23:11;25.30;92.70
33594;DHT22;19920;52.242;20.940;2023-04-24T14:25:37;24.90;92.30
33594;DHT22;19920;52.242;20.940;2023-04-24T14:28:02;24.40;93.20
33594;DHT22;19920;52.242;20.940;2023-04-24T14:30:28;24.00;94.00
33594;DHT22;19920;52.242;20.940;2023-04-24T14:32:54;23.70;94.30
33594;DHT22;19920;52.242;20.940;2023-04-24T14:35:19;23.50;93.90
33594;DHT22;19920;52.242;20.940;2023-04-24T14:37:45;23.40;93.80
33594;DHT22;19920;52.242;20.940;2023-04-24T14:40:11;23.40;93.10
33594;DHT22;19920;52.242;20.940;2023-04-24T14:42:37;23.50;92.80
33594;DHT22;19920;52.242;20.940;2023-04-24T14:45:03;23.50;93.50
33594;DHT22;19920;52.242;20.940;2023-04-24T14:47:28;24.30;93.50
33594;DHT22;19920;52.242;20.940;2023-04-24T14:49:54;25.50;92.80
33594;DHT22;19920;52.242;20.940;2023-04-24T14:52:20;26.40;92.20
33594;DHT22;19920;52.242;20.940;2023-04-24T14:54:46;27.30;91.10
33594;DHT22;19920;52.242;20.940;2023-04-24T14:57:12;27.50;88.20
33594;DHT22;19920;52.242;20.940;2023-04-24T14:59:38;28.20;90.00
33594;DHT22;19920;52.242;20.940;2023-04-24T15:02:04;28.30;85.50
33594;DHT22;19920;52.242;20.940;2023-04-24T15:04:29;27.90;84.40
33594;DHT22;19920;52.242;20.940;2023-04-24T15:06:56;27.10;86.10
33594;DHT22;19920;52.242;20.940;2023-04-24T15:09:23;26.40;85.80
33594;DHT22;19920;52.242;20.940;2023-04-24T15:11:50;25.90;88.00
33594;DHT22;19920;52.242;20.940;2023-04-24T15:14:16;26.00;86.70
33594;DHT22;19920;52.242;20.940;2023-04-24T15:16:42;26.80;87.30
33594;DHT22;19920;52.242;20.940;2023-04-24T15:19:08;26.70;85.20
33594;DHT22;19920;52.242;20.940;2023-04-24T15:21:35;26.30;85.60
33594;DHT22;19920;52.242;20.940;2023-04-24T15:24:01;26.40;87.70
33594;DHT22;19920;52.242;20.940;2023-04-24T15:26:26;27.80;85.80
33594;DHT22;19920;52.242;20.940;2023-04-24T15:28:52;29.00;85.00